Time;durP1;ratioP1;P1;durP2;ratioP2;P2;SDS_P1;SDS_P2;PMS_P1;PMS_P2;Temp;Humidity;BMP_temperature;BMP_pressure;BME280_temperature;BME280_humidity;BME280_pressure;Samples;Min_cycle;Max_cycle;Signal;HPM_P1;HPM_P2
2022/04/03 00:00:28;;;;;;;13.77;6.50;;;0.10;99.90;;;;;;5053460;28;20104;-67
2022/04/03 00:02:54;;;;;;;16.23;6.05;;;0.10;99.90;;;;;;5053696;28;20552;-67
2022/04/03 00:05:19;;;;;;;12.57;5.70;;;0.00;99.90;;;;;;5053343;28;20029;-67
2022/04/03 00:07:46;;;;;;;12.55;6.95;;;0.00;99.90;;;;;;5053653;28;20025;-67
2022/04/03 00:10:14;;;;;;;12.82;6.97;;;0.00;99.90;;;;;;5053324;28;20550;-67
2022/04/03 00:12:41;;;;;;;15.23;6.80;;;0.00;99.90;;;;;;5053309;28;20396;-67
2022/04/03 00:15:07;;;;;;;16.63;7.95;;;0.00;99.90;;;;;;5053229;28;20033;-67
2022/04/03 00:17:32;;;;;;;15.00;7.22;;;0.00;99.90;;;;;;5052641;28;20068;-67
2022/04/03 00:19:59;;;;;;;13.70;6.95;;;0.00;99.90;;;;;;5053535;28;20035;-67
2022/04/03 00:22:25;;;;;;;11.18;6.70;;;0.00;99.90;;;;;;5053067;28;20074;-67
2022/04/03 00:24:51;;;;;;;12.57;7.03;;;0.00;99.90;;;;;;5053394;28;20029;-67
2022/04/03 00:27:18;;;;;;;30.08;11.75;;;0.00;99.90;;;;;;5053154;28;20071;-67
2022/04/03 00:29:44;;;;;;;25.30;9.65;;;0.00;99.90;;;;;;5053080;28;20023;-67
2022/04/03 00:32:09;;;;;;;14.93;8.23;;;0.00;99.90;;;;;;5053333;28;20021;-67
2022/04/03 00:34:35;;;;;;;16.67;7.65;;;0.00;99.90;;;;;;5053033;28;20025;-67
2022/04/03 00:37:01;;;;;;;11.60;6.60;;;0.00;99.90;;;;;;5053038;28;20029;-67
2022/04/03 00:39:26;;;;;;;15.80;6.93;;;0.00;99.90;;;;;;5053547;28;20021;-67
2022/04/03 00:41:53;;;;;;;14.90;6.85;;;0.00;99.90;;;;;;5052993;28;20033;-67
2022/04/03 00:44:19;;;;;;;18.27;9.43;;;0.00;99.90;;;;;;5052924;28;20017;-67
2022/04/03 00:46:46;;;;;;;17.55;8.52;;;0.00;99.90;;;;;;5035084;28;20075;-67
2022/04/03 00:49:13;;;;;;;15.13;7.70;;;0.00;99.90;;;;;;5052950;28;20360;-67
2022/04/03 00:51:39;;;;;;;14.00;7.63;;;-0.10;99.90;;;;;;5052906;28;20492;-67
2022/04/03 00:54:05;;;;;;;13.32;6.72;;;-0.30;99.90;;;;;;5052904;28;20059;-67
2022/04/03 00:56:32;;;;;;;11.57;5.95;;;-0.30;99.90;;;;;;5052830;28;20037;-67
2022/04/03 00:58:58;;;;;;;15.90;5.78;;;-0.30;99.90;;;;;;5052804;28;20451;-67
2022/04/03 01:01:24;;;;;;;11.05;6.22;;;-0.30;99.90;;;;;;5052790;28;20056;-67
2022/04/03 01:03:49;;;;;;;9.48;5.28;;;-0.40;99.90;;;;;;5052957;28;20071;-67
2022/04/03 01:06:16;;;;;;;9.60;5.13;;;-0.50;99.90;;;;;;5052769;28;20025;-67
2022/04/03 01:08:44;;;;;;;12.02;5.75;;;-0.50;99.90;;;;;;5052694;28;20450;-67
2022/04/03 01:11:13;;;;;;;10.43;5.30;;;-0.50;99.90;;;;;;5052928;28;20025;-67
2022/04/03 01:13:50;;;;;;;11.15;5.10;;;-0.60;99.90;;;;;;5052653;28;20025;-67
2022/04/03 01:16:16;;;;;;;12.02;6.10;;;-0.50;99.90;;;;;;5052582;28;20025;-67
2022/04/03 01:18:42;;;;;;;11.23;6.63;;;-0.50;99.90;;;;;;5052885;28;20024;-67
2022/04/03 01:21:08;;;;;;;8.77;5.00;;;-0.50;99.90;;;;;;5052588;28;20386;-67
2022/04/03 01:23:33;;;;;;;9.55;5.28;;;-0.50;99.90;;;;;;5051346;28;20040;-67
2022/04/03 01:25:59;;;;;;;9.73;5.32;;;-0.60;99.90;;;;;;5072880;28;20024;-67
2022/04/03 01:28:25;;;;;;;9.52;5.43;;;-0.70;99.90;;;;;;5074656;28;20016;-67
2022/04/03 01:30:51;;;;;;;11.02;4.40;;;-0.70;99.90;;;;;;5076569;28;20028;-67
2022/04/03 01:33:17;;;;;;;11.90;5.88;;;-0.70;99.90;;;;;;5076205;28;20020;-67
2022/04/03 01:35:43;;;;;;;14.95;6.18;;;-0.70;99.90;;;;;;5076189;28;20017;-67
2022/04/03 01:38:09;;;;;;;11.05;6.45;;;-0.70;99.90;;;;;;5076156;28;20032;-67
2022/04/03 01:40:36;;;;;;;15.43;7.57;;;-0.70;99.90;;;;;;5076097;28;20035;-67
2022/04/03 01:43:10;;;;;;;15.90;8.35;;;-0.70;99.90;;;;;;5076129;28;20068;-67
2022/04/03 01:45:37;;;;;;;9.80;4.85;;;-0.80;99.90;;;;;;5075968;28;20024;-67
2022/04/03 01:48:04;;;;;;;9.57;5.65;;;-0.80;99.90;;;;;;5075973;28;20017;-67
2022/04/03 01:50:30;;;;;;;11.27;5.80;;;-0.80;99.90;;;;;;5076190;28;20439;-67
2022/04/03 01:52:56;;;;;;;11.93;5.75;;;-0.80;99.90;;;;;;5075872;28;20056;-67
2022/04/03 01:55:23;;;;;;;9.52;5.78;;;-0.90;99.90;;;;;;5076095;28;20386;-67
2022/04/03 01:57:48;;;;;;;12.60;5.13;;;-0.90;99.90;;;;;;5075823;28;20021;-67
2022/04/03 02:00:14;;;;;;;9.82;5.10;;;-0.90;99.90;;;;;;5075786;28;20028;-67
2022/04/03 02:02:40;;;;;;;9.75;5.28;;;-0.90;99.90;;;;;;5076300;28;20031;-67
2022/04/03 02:05:07;;;;;;;10.95;5.35;;;-0.90;99.90;;;;;;5075666;28;20366;-67
2022/04/03 02:07:35;;;;;;;9.43;4.97;;;-1.00;99.90;;;;;;5075663;28;20488;-67
2022/04/03 02:10:02;;;;;;;9.55;5.47;;;-0.90;99.90;;;;;;5074325;28;20430;-67
2022/04/03 02:12:28;;;;;;;9.68;4.97;;;-1.00;99.90;;;;;;5075828;28;20360;-67
2022/04/03 02:14:54;;;;;;;11.05;5.65;;;-0.90;99.90;;;;;;5075422;28;20032;-67
2022/04/03 02:17:19;;;;;;;10.57;5.25;;;-0.90;99.90;;;;;;5075732;28;20406;-67
2022/04/03 02:19:45;;;;;;;11.07;4.80;;;-0.90;99.90;;;;;;5075412;28;20031;-67
2022/04/03 02:22:11;;;;;;;9.85;5.35;;;-0.90;99.90;;;;;;5075357;28;20029;-67
2022/04/03 02:24:37;;;;;;;10.00;5.15;;;-0.90;99.90;;;;;;5055969;28;20041;-67
2022/04/03 02:27:03;;;;;;;10.13;5.15;;;-1.00;99.90;;;;;;5055538;28;20020;-67
2022/04/03 02:29:29;;;;;;;8.77;5.20;;;-0.90;99.90;;;;;;5055478;28;20505;-67
2022/04/03 02:31:55;;;;;;;12.25;6.75;;;-1.00;99.90;;;;;;5055450;28;20021;-67
2022/04/03 02:34:20;;;;;;;18.02;12.43;;;-0.90;99.90;;;;;;5055128;28;20029;-67
2022/04/03 02:36:46;;;;;;;41.28;26.27;;;-0.90;99.90;;;;;;5037167;28;20029;-67
2022/04/03 02:39:15;;;;;;;88.93;48.70;;;-0.90;99.90;;;;;;5054521;28;20024;-67
2022/04/03 02:41:40;;;;;;;20.40;10.50;;;-0.90;99.90;;;;;;5055182;28;20021;-67
2022/04/03 02:44:06;;;;;;;24.00;13.45;;;-0.90;99.90;;;;;;5055150;28;20082;-67
2022/04/03 02:46:32;;;;;;;9.07;5.65;;;-0.90;99.90;;;;;;5054859;28;20513;-67
2022/04/03 02:48:58;;;;;;;13.82;6.35;;;-1.10;99.90;;;;;;5054855;28;20021;-67
2022/04/03 02:51:24;;;;;;;11.48;6.10;;;-1.00;99.90;;;;;;5055057;28;20390;-67
2022/04/03 02:53:49;;;;;;;14.32;7.20;;;-1.00;99.90;;;;;;5055034;28;20382;-67
2022/04/03 02:56:15;;;;;;;12.98;7.32;;;-1.00;99.90;;;;;;5055247;28;20053;-67
2022/04/03 02:58:41;;;;;;;14.32;6.68;;;-0.90;99.90;;;;;;5054654;28;20083;-67
2022/04/03 03:01:07;;;;;;;11.90;7.10;;;-0.90;99.90;;;;;;5054615;28;20109;-67
2022/04/03 03:03:32;;;;;;;16.02;9.73;;;-0.80;99.90;;;;;;5054519;28;20017;-67
2022/04/03 03:05:58;;;;;;;12.63;6.13;;;-0.80;99.90;;;;;;5054831;28;20037;-67
2022/04/03 03:08:24;;;;;;;14.15;5.75;;;-0.90;99.90;;;;;;5054430;28;20487;-67
2022/04/03 03:10:50;;;;;;;14.48;6.20;;;-1.00;99.90;;;;;;5054455;28;20070;-67
2022/04/03 03:13:16;;;;;;;11.63;6.25;;;-1.10;99.90;;;;;;5054624;28;20021;-67
2022/04/03 03:15:42;;;;;;;10.95;6.25;;;-1.20;99.90;;;;;;5054251;28;20040;-67
2022/04/03 03:18:07;;;;;;;9.93;5.85;;;-1.20;99.90;;;;;;5054285;28;20029;-67
2022/04/03 03:20:34;;;;;;;12.38;5.32;;;-1.30;99.90;;;;;;5054466;28;20029;-67
2022/04/03 03:23:00;;;;;;;9.13;5.07;;;-1.40;99.90;;;;;;5054170;28;20056;-67
2022/04/03 03:25:26;;;;;;;14.32;5.30;;;-1.40;99.90;;;;;;5054034;28;20497;-67
2022/04/03 03:27:52;;;;;;;9.80;5.15;;;-1.40;99.90;;;;;;5054334;28;20017;-67
2022/04/03 03:30:17;;;;;;;9.80;5.07;;;-1.40;99.90;;;;;;5054317;28;20390;-67
2022/04/03 03:32:43;;;;;;;10.23;6.35;;;-1.40;99.90;;;;;;5053992;28;20028;-67
2022/04/03 03:35:10;;;;;;;11.05;4.70;;;-1.50;99.90;;;;;;5053961;28;20401;-67
2022/04/03 03:37:36;;;;;;;9.98;5.50;;;-1.50;99.90;;;;;;5053881;28;20053;-67
2022/04/03 03:40:03;;;;;;;11.73;5.72;;;-1.50;99.90;;;;;;5054160;28;20045;-67
2022/04/03 03:42:29;;;;;;;11.20;5.47;;;-1.60;99.90;;;;;;5053794;28;20025;-67
2022/04/03 03:44:55;;;;;;;10.80;6.03;;;-1.60;99.90;;;;;;5053704;28;20082;-67
2022/04/03 03:47:20;;;;;;;11.40;6.90;;;-1.60;99.90;;;;;;5054039;28;20068;-67
2022/04/03 03:49:46;;;;;;;12.18;5.82;;;-1.60;99.90;;;;;;5053711;28;20021;-67
2022/04/03 03:52:12;;;;;;;13.90;7.90;;;-1.60;99.90;;;;;;5053050;28;20028;-67
2022/04/03 03:54:38;;;;;;;10.02;5.75;;;-1.50;99.90;;;;;;5053587;28;20021;-67
2022/04/03 03:57:04;;;;;;;14.25;5.35;;;-1.40;99.90;;;;;;5053562;28;20032;-67
2022/04/03 03:59:30;;;;;;;13.90;5.75;;;-1.40;99.90;;;;;;5053831;28;20458;-67
2022/04/03 04:01:56;;;;;;;8.27;5.10;;;-1.30;99.90;;;;;;5053808;28;20110;-67
2022/04/03 04:04:21;;;;;;;16.00;5.38;;;-1.10;99.90;;;;;;5053358;28;20394;-67
2022/04/03 04:06:48;;;;;;;12.23;5.40;;;-1.00;99.90;;;;;;5053458;28;20021;-67
2022/04/03 04:09:14;;;;;;;15.77;7.25;;;-0.80;99.90;;;;;;5053438;28;20104;-67
2022/04/03 04:11:39;;;;;;;27.65;16.40;;;-0.80;99.90;;;;;;5053299;28;20044;-67
2022/04/03 04:14:05;;;;;;;24.33;12.93;;;-0.80;99.90;;;;;;5053501;28;20057;-67
2022/04/03 04:16:31;;;;;;;28.17;16.40;;;-0.80;99.90;;;;;;5053270;28;20025;-67
2022/04/03 04:18:56;;;;;;;21.63;13.75;;;-0.70;99.90;;;;;;5053550;28;20044;-67
2022/04/03 04:21:22;;;;;;;15.85;8.10;;;-0.70;99.90;;;;;;5053134;28;20036;-67
2022/04/03 04:23:47;;;;;;;12.27;8.35;;;-0.70;99.90;;;;;;5053065;28;20132;-67
2022/04/03 04:26:14;;;;;;;14.48;6.55;;;-0.60;99.90;;;;;;5053417;28;20033;-67
2022/04/03 04:28:39;;;;;;;12.18;7.47;;;-0.50;99.90;;;;;;5053085;28;20120;-67
2022/04/03 04:31:05;;;;;;;13.27;6.55;;;-0.50;99.90;;;;;;5053385;28;20507;-67
2022/04/03 04:33:31;;;;;;;13.40;7.07;;;-0.50;99.90;;;;;;5053096;28;20025;-67
2022/04/03 04:35:56;;;;;;;12.68;8.18;;;-0.60;99.90;;;;;;5053332;28;20104;-67
2022/04/03 04:38:22;;;;;;;12.30;6.30;;;-0.70;99.90;;;;;;5053051;28;20223;-67
2022/04/03 04:40:48;;;;;;;11.75;6.88;;;-0.90;99.90;;;;;;5053274;28;20079;-67
2022/04/03 04:43:13;;;;;;;11.25;5.88;;;-0.90;99.90;;;;;;5053521;28;20025;-67
2022/04/03 04:45:39;;;;;;;15.65;8.18;;;-1.00;99.90;;;;;;5053159;28;20033;-67
2022/04/03 04:48:05;;;;;;;10.63;5.97;;;-1.10;99.90;;;;;;5035064;28;20031;-67
2022/04/03 04:50:31;;;;;;;13.32;5.97;;;-1.20;99.90;;;;;;5052902;28;20017;-67
2022/04/03 04:52:57;;;;;;;10.25;5.68;;;-1.40;99.90;;;;;;5052874;28;20036;-67
2022/04/03 04:55:24;;;;;;;12.40;6.00;;;-1.40;99.90;;;;;;5053129;28;20059;-67
2022/04/03 04:57:53;;;;;;;12.32;5.72;;;-1.50;99.90;;;;;;5053080;28;20455;-67
2022/04/03 05:00:21;;;;;;;9.10;5.50;;;-1.60;99.90;;;;;;5052836;28;20541;-67
2022/04/03 05:02:47;;;;;;;11.57;5.55;;;-1.60;99.90;;;;;;5053730;28;20548;-67
2022/04/03 05:05:20;;;;;;;12.20;5.78;;;-1.60;99.90;;;;;;5056661;28;20107;-69
2022/04/03 05:07:49;;;;;;;11.80;5.43;;;-1.60;99.90;;;;;;5057036;28;20517;-67
2022/04/03 05:10:16;;;;;;;13.50;5.53;;;-1.60;99.90;;;;;;5056729;28;20028;-67
2022/04/03 05:12:43;;;;;;;21.48;11.80;;;-1.70;99.90;;;;;;5057163;28;20297;-67
2022/04/03 05:15:13;;;;;;;17.23;8.32;;;-1.70;99.90;;;;;;5056424;28;20055;-67
2022/04/03 05:17:40;;;;;;;13.15;5.85;;;-1.70;99.90;;;;;;5056556;28;20025;-67
2022/04/03 05:20:06;;;;;;;10.15;6.40;;;-1.70;99.90;;;;;;5057017;28;20475;-67
2022/04/03 05:22:32;;;;;;;13.25;6.72;;;-1.70;99.90;;;;;;5056785;28;20540;-67
2022/04/03 05:24:58;;;;;;;13.02;6.93;;;-1.80;99.90;;;;;;5056686;28;20112;-67
2022/04/03 05:27:24;;;;;;;15.07;7.10;;;-1.70;99.90;;;;;;5056352;28;20017;-67
2022/04/03 05:29:50;;;;;;;13.18;7.18;;;-1.70;99.90;;;;;;5056345;28;20512;-67
2022/04/03 05:32:28;;;;;;;12.18;6.90;;;-1.70;99.90;;;;;;5056278;28;20021;-67
2022/04/03 05:34:56;;;;;;;12.13;7.13;;;-1.70;99.90;;;;;;5056292;28;20021;-69
2022/04/03 05:37:22;;;;;;;17.65;8.10;;;-1.70;99.90;;;;;;5056228;28;20021;-67
2022/04/03 05:39:48;;;;;;;17.85;8.15;;;-1.70;99.90;;;;;;5056162;28;20517;-67
2022/04/03 05:42:14;;;;;;;14.25;7.50;;;-1.70;99.90;;;;;;5056136;28;20032;-67
2022/04/03 05:44:40;;;;;;;19.08;6.90;;;-1.60;99.90;;;;;;5056001;28;20025;-67
2022/04/03 05:47:06;;;;;;;12.57;7.22;;;-1.60;99.90;;;;;;5056024;28;20044;-67
2022/04/03 05:49:32;;;;;;;15.48;7.90;;;-1.50;99.90;;;;;;5056497;28;20062;-69
2022/04/03 05:51:57;;;;;;;16.13;8.43;;;-1.50;99.90;;;;;;5055899;28;20049;-67
2022/04/03 05:54:23;;;;;;;14.82;7.93;;;-1.40;99.90;;;;;;5055899;28;20056;-67
2022/04/03 05:56:49;;;;;;;15.05;9.25;;;-1.30;99.90;;;;;;5056176;28;20069;-67
2022/04/03 05:59:15;;;;;;;17.10;7.43;;;-1.20;99.90;;;;;;5055824;28;20500;-67
2022/04/03 06:01:41;;;;;;;16.77;7.53;;;-1.20;99.90;;;;;;5055779;28;20060;-67
2022/04/03 06:04:07;;;;;;;12.63;7.20;;;-1.10;99.90;;;;;;5055625;28;20056;-67
2022/04/03 06:06:32;;;;;;;29.75;14.27;;;-1.10;99.90;;;;;;5055689;28;20017;-67
2022/04/03 06:08:58;;;;;;;15.55;9.02;;;-1.10;99.90;;;;;;5055882;28;20032;-67
2022/04/03 06:11:24;;;;;;;45.47;21.70;;;-1.10;99.90;;;;;;5055542;28;20035;-67
2022/04/03 06:13:49;;;;;;;33.40;14.73;;;-1.00;99.90;;;;;;5055116;28;20403;-67
2022/04/03 06:16:15;;;;;;;62.95;34.35;;;-0.90;99.90;;;;;;5054820;28;20096;-67
2022/04/03 06:18:41;;;;;;;40.45;23.23;;;-0.90;99.90;;;;;;5055721;28;20111;-67
2022/04/03 06:21:08;;;;;;;15.77;7.63;;;-0.80;99.90;;;;;;5055416;28;20054;-67
2022/04/03 06:23:33;;;;;;;26.52;16.58;;;-0.80;99.90;;;;;;5055301;28;20068;-67
2022/04/03 06:25:59;;;;;;;31.02;21.00;;;-0.80;99.90;;;;;;5055240;28;20110;-68
2022/04/03 06:28:25;;;;;;;34.42;21.75;;;-0.70;99.90;;;;;;5055518;28;20108;-67
2022/04/03 06:30:52;;;;;;;20.52;11.45;;;-0.60;99.90;;;;;;5055201;28;20017;-67
2022/04/03 06:33:18;;;;;;;19.10;10.68;;;-0.50;99.90;;;;;;5055247;28;20027;-67
2022/04/03 06:35:44;;;;;;;12.02;7.00;;;-0.30;99.90;;;;;;5055435;28;20021;-67
2022/04/03 06:38:11;;;;;;;12.60;5.43;;;-0.20;99.90;;;;;;5055089;28;20029;-67
2022/04/03 06:40:37;;;;;;;14.18;5.57;;;-0.20;99.90;;;;;;5055054;28;20474;-67
2022/04/03 06:43:03;;;;;;;12.55;5.40;;;-0.10;99.90;;;;;;5054994;28;20021;-67
2022/04/03 06:45:29;;;;;;;8.30;4.78;;;0.10;99.90;;;;;;5054924;28;20083;-68
2022/04/03 06:47:58;;;;;;;14.20;9.18;;;0.40;99.90;;;;;;5054943;28;20053;-67
2022/04/03 06:50:24;;;;;;;12.13;8.43;;;0.60;99.90;;;;;;5055408;28;20018;-67
2022/04/03 06:52:50;;;;;;;10.57;5.90;;;1.00;99.90;;;;;;5054835;28;20440;-67
2022/04/03 06:55:16;;;;;;;8.98;5.57;;;1.80;99.90;;;;;;5054720;28;20100;-68
2022/04/03 06:57:41;;;;;;;7.97;4.97;;;5.30;99.90;;;;;;5054946;28;20025;-68
2022/04/03 07:00:08;;;;;;;9.55;6.22;;;8.00;99.90;;;;;;5054654;28;20070;-68
2022/04/03 07:02:34;;;;;;;9.35;4.90;;;9.60;99.90;;;;;;5054610;28;20017;-68
2022/04/03 07:05:01;;;;;;;11.68;5.18;;;10.80;99.20;;;;;;5054459;28;20036;-68
2022/04/03 07:07:27;;;;;;;13.32;5.95;;;11.90;96.20;;;;;;5054501;28;20044;-68
2022/04/03 07:09:53;;;;;;;7.25;4.63;;;13.00;92.50;;;;;;5054483;28;20017;-68
2022/04/03 07:12:20;;;;;;;11.15;5.53;;;13.90;88.30;;;;;;5054719;28;20445;-68
2022/04/03 07:14:46;;;;;;;8.65;4.50;;;14.40;84.20;;;;;;5054288;28;20036;-68
2022/04/03 07:17:12;;;;;;;9.65;4.85;;;11.90;82.90;;;;;;5054278;28;20028;-67
2022/04/03 07:19:38;;;;;;;8.75;4.32;;;9.30;89.70;;;;;;5054528;28;20032;-68
2022/04/03 07:22:04;;;;;;;13.90;4.80;;;7.30;93.40;;;;;;5054488;28;20036;-67
2022/04/03 07:24:29;;;;;;;7.95;4.57;;;6.00;97.50;;;;;;5053665;28;20534;-67
2022/04/03 07:26:56;;;;;;;10.13;5.43;;;5.20;99.90;;;;;;5054512;28;20135;-67
2022/04/03 07:29:22;;;;;;;9.98;5.60;;;4.70;99.90;;;;;;5054024;28;20025;-67
2022/04/03 07:31:48;;;;;;;11.73;6.22;;;4.50;99.90;;;;;;5054010;28;20028;-67
2022/04/03 07:34:14;;;;;;;9.35;5.50;;;4.40;99.90;;;;;;5054444;28;20108;-68
2022/04/03 07:36:40;;;;;;;9.13;5.20;;;4.50;99.90;;;;;;5053818;28;20078;-68
2022/04/03 07:39:06;;;;;;;10.40;5.15;;;5.30;99.90;;;;;;5053924;28;20029;-68
2022/04/03 07:41:31;;;;;;;17.27;9.70;;;10.30;99.90;;;;;;5053887;28;20513;-68
2022/04/03 07:43:57;;;;;;;10.77;6.63;;;13.90;95.80;;;;;;5053984;28;20021;-68
2022/04/03 07:46:23;;;;;;;8.73;5.15;;;16.60;90.30;;;;;;5053774;28;20057;-68
2022/04/03 07:48:48;;;;;;;10.15;4.53;;;18.40;78.70;;;;;;5053747;28;20099;-69
2022/04/03 07:51:14;;;;;;;11.90;4.88;;;19.90;70.00;;;;;;5053686;28;20029;-69
2022/04/03 07:53:40;;;;;;;7.45;4.07;;;21.00;62.30;;;;;;5053661;28;20079;-68
2022/04/03 07:56:06;;;;;;;8.30;4.20;;;22.30;58.10;;;;;;5053546;28;20036;-68
2022/04/03 07:58:33;;;;;;;6.75;3.80;;;23.10;55.00;;;;;;5053575;28;20437;-68
2022/04/03 08:01:00;;;;;;;7.63;4.07;;;23.70;51.60;;;;;;5053484;28;20025;-68
2022/04/03 08:03:26;;;;;;;8.18;4.30;;;24.30;50.10;;;;;;5053965;28;20435;-69
2022/04/03 08:05:53;;;;;;;8.25;4.22;;;24.80;48.00;;;;;;5053249;28;20021;-69
2022/04/03 08:08:19;;;;;;;12.45;4.10;;;25.20;47.90;;;;;;5053295;28;20017;-69
2022/04/03 08:10:45;;;;;;;7.68;3.70;;;25.60;45.40;;;;;;5053346;28;20494;-69
2022/04/03 08:13:10;;;;;;;6.70;3.45;;;26.10;45.20;;;;;;5053312;28;20540;-69
2022/04/03 08:15:36;;;;;;;6.47;2.47;;;26.80;44.00;;;;;;5053451;28;20033;-69
2022/04/03 08:18:02;;;;;;;4.72;2.10;;;27.30;41.20;;;;;;5053477;28;20082;-68
2022/04/03 08:20:27;;;;;;;5.47;2.30;;;27.40;40.90;;;;;;5053233;28;20486;-68
2022/04/03 08:22:53;;;;;;;4.20;1.90;;;27.70;38.60;;;;;;5053018;28;20495;-68
2022/04/03 08:25:19;;;;;;;5.53;1.88;;;27.60;37.90;;;;;;5053352;28;20036;-68
2022/04/03 08:27:44;;;;;;;5.60;1.92;;;27.60;38.30;;;;;;5053431;28;20053;-68
2022/04/03 08:30:18;;;;;;;4.72;1.95;;;27.80;38.20;;;;;;5053654;28;20028;-68
2022/04/03 08:32:44;;;;;;;6.05;2.00;;;27.70;37.30;;;;;;5053368;28;20021;-69
2022/04/03 08:35:12;;;;;;;5.00;1.77;;;28.00;36.60;;;;;;5053186;28;20052;-68
2022/04/03 08:37:39;;;;;;;5.68;2.22;;;28.40;36.80;;;;;;5052427;28;20017;-69
2022/04/03 08:40:06;;;;;;;5.43;1.75;;;28.80;36.10;;;;;;5052873;28;20023;-68
2022/04/03 08:42:33;;;;;;;6.30;2.00;;;28.70;35.90;;;;;;5053380;28;20086;-68
2022/04/03 08:44:59;;;;;;;3.60;1.70;;;28.80;34.80;;;;;;5053112;28;20049;-68
2022/04/03 08:47:26;;;;;;;4.05;1.90;;;28.20;34.70;;;;;;5052906;28;20052;-68
2022/04/03 08:49:56;;;;;;;5.35;1.75;;;28.10;34.60;;;;;;5052748;28;20079;-68
2022/04/03 08:52:22;;;;;;;5.20;2.00;;;28.40;34.30;;;;;;5053324;28;20017;-69
2022/04/03 08:54:48;;;;;;;8.88;2.10;;;28.70;33.80;;;;;;5052710;28;20376;-69
2022/04/03 08:57:15;;;;;;;5.53;1.88;;;28.70;34.00;;;;;;5052607;28;20028;-68
2022/04/03 08:59:40;;;;;;;3.90;1.90;;;28.70;33.60;;;;;;5052815;28;20029;-69
2022/04/03 09:02:07;;;;;;;4.35;1.48;;;29.30;33.50;;;;;;5052358;28;20570;-69
2022/04/03 09:04:33;;;;;;;2.65;1.20;;;29.60;32.60;;;;;;5052752;28;20053;-69
2022/04/03 09:07:00;;;;;;;4.03;1.90;;;28.70;33.00;;;;;;5052907;28;20024;-68
2022/04/03 09:09:27;;;;;;;4.80;1.85;;;29.30;33.20;;;;;;5052901;28;20475;-68
2022/04/03 09:12:10;;;;;;;4.28;1.52;;;29.10;32.80;;;;;;5052687;28;20060;-69
2022/04/03 09:14:47;;;;;;;3.97;1.63;;;29.00;32.80;;;;;;5052608;28;20509;-69
2022/04/03 09:17:31;;;;;;;5.80;2.00;;;29.70;33.00;;;;;;5052754;28;20383;-69
2022/04/03 09:19:59;;;;;;;3.08;1.58;;;29.50;32.40;;;;;;5052496;28;20029;-69
2022/04/03 09:22:29;;;;;;;4.30;1.90;;;29.70;32.90;;;;;;5052468;28;20044;-69
2022/04/03 09:24:55;;;;;;;6.07;1.70;;;30.80;32.10;;;;;;5052502;28;20486;-68
2022/04/03 09:27:22;;;;;;;5.03;1.52;;;30.10;32.40;;;;;;5052662;28;20116;-69
2022/04/03 09:30:07;;;;;;;5.22;1.83;;;30.10;32.50;;;;;;5052481;28;20049;-69
2022/04/03 09:32:33;;;;;;;4.28;1.77;;;30.30;32.20;;;;;;5053043;28;20025;-69
2022/04/03 09:34:59;;;;;;;4.75;1.40;;;30.80;31.80;;;;;;5052340;28;20112;-69
2022/04/03 09:37:26;;;;;;;4.88;1.85;;;30.40;31.80;;;;;;5052796;28;20114;-69
2022/04/03 09:39:52;;;;;;;2.97;1.55;;;30.20;31.60;;;;;;5052329;28;20025;-69
2022/04/03 09:42:18;;;;;;;4.22;1.70;;;29.80;31.50;;;;;;5052342;28;20013;-69
2022/04/03 09:44:45;;;;;;;5.80;1.80;;;29.50;31.20;;;;;;5052306;28;20033;-68
2022/04/03 09:47:22;;;;;;;4.68;1.88;;;30.00;31.50;;;;;;5052387;28;20013;-69
2022/04/03 09:49:56;;;;;;;6.05;1.70;;;31.20;30.70;;;;;;5053474;28;20023;-69
2022/04/03 09:52:46;;;;;;;4.28;2.00;;;31.10;31.20;;;;;;5056499;28;20017;-68
2022/04/03 09:55:21;;;;;;;4.60;1.90;;;31.80;30.90;;;;;;5056441;28;20025;-69
2022/04/03 09:57:48;;;;;;;4.65;1.75;;;30.50;31.30;;;;;;5056397;28;20032;-69
2022/04/03 10:00:41;;;;;;;3.47;1.55;;;30.60;31.80;;;;;;5055775;28;20028;-69
2022/04/03 10:03:10;;;;;;;4.78;2.05;;;31.20;31.10;;;;;;5056081;28;20103;-69
2022/04/03 10:05:36;;;;;;;4.47;1.90;;;31.50;31.00;;;;;;5055648;28;20028;-71
2022/04/03 10:08:04;;;;;;;3.38;1.58;;;28.50;30.60;;;;;;5055630;28;20025;-72
2022/04/03 10:10:31;;;;;;;6.18;1.83;;;27.30;33.70;;;;;;5055575;28;20029;-71
2022/04/03 10:12:58;;;;;;;7.72;1.80;;;28.20;32.40;;;;;;5037618;28;20025;-70
2022/04/03 10:15:24;;;;;;;3.40;1.60;;;26.80;31.10;;;;;;5055382;28;20039;-70
2022/04/03 10:17:50;;;;;;;6.95;1.73;;;26.00;34.70;;;;;;5055695;28;20072;-70
2022/04/03 10:20:16;;;;;;;4.30;1.70;;;29.00;32.20;;;;;;5037553;28;20056;-71
2022/04/03 10:22:45;;;;;;;4.93;1.70;;;29.10;32.20;;;;;;5055397;28;20107;-70
2022/04/03 10:25:15;;;;;;;4.22;1.33;;;29.10;30.70;;;;;;5055316;28;20029;-70
2022/04/03 10:27:43;;;;;;;4.10;1.73;;;27.30;33.30;;;;;;5055292;28;20139;-71
2022/04/03 10:30:10;;;;;;;6.53;1.95;;;25.80;31.30;;;;;;5055877;28;20528;-69
2022/04/03 10:32:37;;;;;;;2.33;1.50;;;21.90;36.20;;;;;;5037314;28;20021;-70
2022/04/03 10:35:06;;;;;;;2.15;1.33;;;20.20;38.40;;;;;;5055192;28;20029;-70
2022/04/03 10:37:43;;;;;;;2.63;1.38;;;24.70;35.90;;;;;;5055079;28;20021;-71
2022/04/03 10:40:09;;;;;;;2.60;1.50;;;21.60;34.70;;;;;;5055965;28;20090;-70
2022/04/03 10:43:01;;;;;;;3.63;1.40;;;21.70;35.10;;;;;;5055006;28;20032;-71
2022/04/03 10:45:28;;;;;;;5.05;1.60;;;20.50;35.40;;;;;;5055220;28;20033;-71
2022/04/03 10:48:19;;;;;;;4.90;1.80;;;24.40;35.20;;;;;;5054857;28;20028;-71
2022/04/03 10:51:04;;;;;;;3.17;1.30;;;27.50;32.00;;;;;;5055080;28;20025;-71
2022/04/03 10:53:33;;;;;;;4.65;1.38;;;26.40;32.10;;;;;;5054839;28;20498;-71
2022/04/03 10:56:07;;;;;;;3.30;1.27;;;29.70;31.10;;;;;;5054803;28;20402;-70
2022/04/03 10:58:44;;;;;;;3.20;1.17;;;30.40;30.00;;;;;;5055301;28;20031;-70
2022/04/03 11:01:22;;;;;;;3.45;1.30;;;29.30;30.80;;;;;;5054825;28;20075;-70
2022/04/03 11:04:02;;;;;;;3.13;1.02;;;29.90;30.70;;;;;;5054669;28;20491;-70
2022/04/03 11:06:36;;;;;;;3.67;1.55;;;28.10;29.30;;;;;;5036487;28;20029;-71
2022/04/03 11:09:09;;;;;;;2.33;1.30;;;22.10;32.80;;;;;;5055123;28;20025;-71
2022/04/03 11:11:36;;;;;;;3.53;1.33;;;23.60;34.70;;;;;;5054745;28;20032;-70
2022/04/03 11:14:07;;;;;;;1.63;1.33;;;27.40;32.40;;;;;;5054336;28;20017;-71
2022/04/03 11:16:53;;;;;;;2.05;1.45;;;29.80;30.00;;;;;;5054382;28;20025;-70
2022/04/03 11:19:36;;;;;;;5.50;1.45;;;31.50;29.90;;;;;;5054653;28;20154;-70
2022/04/03 11:22:02;;;;;;;2.72;1.30;;;30.10;29.80;;;;;;5054921;28;20021;-70
2022/04/03 11:24:28;;;;;;;2.75;1.35;;;29.00;31.00;;;;;;5053850;28;20478;-70
2022/04/03 11:26:54;;;;;;;3.15;1.63;;;25.40;31.40;;;;;;5054164;28;20074;-70
2022/04/03 11:29:20;;;;;;;3.70;1.90;;;22.60;34.40;;;;;;5054717;28;20070;-69
2022/04/03 11:31:47;;;;;;;3.17;1.30;;;22.50;34.50;;;;;;5054129;28;20488;-70
2022/04/03 11:34:13;;;;;;;2.38;1.42;;;24.20;33.80;;;;;;5054330;28;20017;-70
2022/04/03 11:36:39;;;;;;;3.28;1.67;;;24.80;33.60;;;;;;5054036;28;20382;-71
2022/04/03 11:39:08;;;;;;;5.57;1.88;;;26.10;33.00;;;;;;5053955;28;20032;-69
2022/04/03 11:41:35;;;;;;;;;;;24.30;34.20;;;;;;5054299;28;20021;-70
2022/04/03 11:44:05;;;;;;;3.67;1.50;;;21.40;36.80;;;;;;5054094;28;20294;-70
2022/04/03 11:46:38;;;;;;;4.28;1.48;;;20.30;38.60;;;;;;5053855;28;20100;-70
2022/04/03 11:49:15;;;;;;;6.07;2.05;;;18.60;39.80;;;;;;5053765;28;20028;-71
2022/04/03 11:51:42;;;;;;;3.75;1.70;;;17.30;41.90;;;;;;5054015;28;20028;-71
2022/04/03 11:54:07;;;;;;;2.65;1.40;;;16.10;43.20;;;;;;5053619;28;20054;-70
2022/04/03 11:56:36;;;;;;;3.08;1.75;;;15.10;43.80;;;;;;5053644;28;20013;-69
2022/04/03 11:59:07;;;;;;;2.65;1.30;;;14.60;43.70;;;;;;5053585;28;20029;-70
2022/04/03 12:01:38;;;;;;;2.97;1.42;;;13.80;44.90;;;;;;5053878;28;20487;-69
2022/04/03 12:04:08;;;;;;;4.38;1.63;;;13.60;45.90;;;;;;5053463;28;20096;-70
2022/04/03 12:06:35;;;;;;;2.63;1.75;;;13.30;46.20;;;;;;5053789;28;20493;-69
2022/04/03 12:09:08;;;;;;;2.75;1.90;;;13.30;48.10;;;;;;5053408;28;20033;-69
2022/04/03 12:11:35;;;;;;;3.42;1.85;;;13.80;48.40;;;;;;5053621;28;20092;-72
2022/04/03 12:14:01;;;;;;;3.38;1.63;;;14.10;47.00;;;;;;5052663;28;20112;-70
2022/04/03 12:16:35;;;;;;;2.70;1.77;;;14.80;46.20;;;;;;5053325;28;20053;-70
2022/04/03 12:19:02;;;;;;;4.30;1.60;;;15.20;44.40;;;;;;5053888;28;20025;-69
2022/04/03 12:21:38;;;;;;;3.80;1.88;;;15.40;44.30;;;;;;5053744;28;20057;-70
2022/04/03 12:24:05;;;;;;;2.95;2.03;;;14.80;44.90;;;;;;5052847;28;20044;-70
2022/04/03 12:26:31;;;;;;;4.78;1.95;;;15.00;44.90;;;;;;5053159;28;20219;-70
2022/04/03 12:28:57;;;;;;;4.13;1.80;;;15.10;43.90;;;;;;5053147;28;20534;-69
2022/04/03 12:31:27;;;;;;;3.45;1.75;;;15.30;46.30;;;;;;5053091;28;20025;-70
2022/04/03 12:34:07;;;;;;;3.67;1.83;;;15.60;45.70;;;;;;5053381;28;20043;-70
2022/04/03 12:36:45;;;;;;;5.45;1.88;;;15.70;45.20;;;;;;5053096;28;20033;-70
2022/04/03 12:39:37;;;;;;;2.58;1.40;;;15.10;45.20;;;;;;5052863;28;20441;-70
2022/04/03 12:42:11;;;;;;;3.92;1.70;;;14.60;46.60;;;;;;5053312;28;20025;-71
2022/04/03 12:44:46;;;;;;;3.20;1.55;;;14.40;46.00;;;;;;5052918;28;20032;-69